Time,TemperatureF,DewpointF,PressureIn,WindDirection,WindDirectionDegrees,WindSpeedMPH,WindSpeedGustMPH,Humidity,HourlyPrecipIn,Conditions,Clouds,dailyrainin,SoftwareType,DateUTC
2013-09-08 00:00:00,77.5,68.1,30.06,South,175,5.0,10.0,73,0.00,CLR,,0.00,WeatherDisplay:10.37,2013-09-07 22:00:00,
2013-09-08 00:05:00,77.6,68.2,30.06,South,185,5.0,10.0,73,0.00,CLR,,0.00,WeatherDisplay:10.37,2013-09-07 22:05:00,
2013-09-08 00:15:00,77.9,69.3,30.07,South,188,6.0,9.0,75,0.00,CLR,,0.00,WeatherDisplay:10.37,2013-09-07 22:15:00,
2013-09-08 00:20:00,77.8,68.8,30.07,SSW,198,5.0,12.0,74,0.00,CLR,,0.00,WeatherDisplay:10.37,2013-09-07 22:20:00,
2013-09-08 00:25:00,77.8,68.8,30.07,SSW,207,5.0,12.0,74,0.00,CLR,,0.00,WeatherDisplay:10.37,2013-09-07 22:25:00,
2013-09-08 00:30:00,77.8,68.4,30.07,SSW,209,5.0,9.0,73,0.00,CLR,,0.00,WeatherDisplay:10.37,2013-09-07 22:30:00,
2013-09-08 00:36:00,77.8,68.4,30.06,SSW,207,4.0,9.0,73,0.00,,,0.00,Wunderground v.1.15,2013-09-07 22:36:00,
2013-09-08 00:45:00,77.8,68.4,30.06,South,190,5.0,9.0,73,0.00,CLR,,0.00,WeatherDisplay:10.37,2013-09-07 22:45:00,
2013-09-08 00:50:00,77.9,68.5,30.06,South,180,3.0,7.0,73,0.00,CLR,,0.00,WeatherDisplay:10.37,2013-09-07 22:50:00,
2013-09-08 00:55:00,77.8,68.8,30.06,South,184,2.0,10.0,74,0.00,CLR,,0.00,WeatherDisplay:10.37,2013-09-07 22:55:00,
2013-09-08 01:00:00,77.9,68.9,30.06,South,174,2.0,7.0,74,0.00,,,0.00,WeatherDisplay:10.37,2013-09-07 23:00:00,
2013-09-08 01:05:00,77.8,69.2,30.06,SSE,163,2.0,9.0,75,0.00,,,0.00,WeatherDisplay:10.37,2013-09-07 23:05:00,
2013-09-08 01:10:00,77.8,69.2,30.06,SSE,164,3.0,8.0,75,0.00,,,0.00,WeatherDisplay:10.37,2013-09-07 23:10:00,
2013-09-08 01:15:00,77.7,69.6,30.06,SSE,167,5.0,9.0,76,0.00,CLR,,0.00,WeatherDisplay:10.37,2013-09-07 23:15:00,
2013-09-08 01:20:00,77.7,69.5,30.06,SSE,168,1.0,8.0,76,0.00,,,0.00,WeatherDisplay:10.37,2013-09-07 23:20:00,
2013-09-08 01:25:00,77.7,69.5,30.06,South,180,3.0,12.0,76,0.00,,,0.00,WeatherDisplay:10.37,2013-09-07 23:25:00,
2013-09-08 01:30:00,77.7,69.5,30.06,South,185,0.0,5.0,76,0.00,,,0.00,WeatherDisplay:10.37,2013-09-07 23:30:00,
2013-09-08 01:35:00,77.8,69.6,30.05,South,182,0.0,7.0,76,0.00,,,0.00,WeatherDisplay:10.37,2013-09-07 23:35:00,
2013-09-08 01:40:00,77.7,69.5,30.05,South,172,3.0,8.0,76,0.00,,,0.00,WeatherDisplay:10.37,2013-09-07 23:40:00,
2013-09-08 01:45:00,77.7,69.5,30.05,SSE,167,0.0,8.0,76,0.00,,,0.00,WeatherDisplay:10.37,2013-09-07 23:45:00,
2013-09-08 01:50:00,77.6,69.4,30.05,SSE,167,5.0,9.0,76,0.00,,,0.00,WeatherDisplay:10.37,2013-09-07 23:50:00,
2013-09-08 01:55:00,77.7,69.5,30.05,South,180,3.0,9.0,76,0.00,,,0.00,WeatherDisplay:10.37,2013-09-07 23:55:00,
2013-09-08 02:05:00,77.6,70.2,30.06,SSW,195,3.0,8.0,78,0.00,,,0.00,WeatherDisplay:10.37,2013-09-08 00:05:00,
2013-09-08 02:11:00,77.5,70.1,30.06,South,171,3.0,4.0,78,0.00,,,0.00,Wunderground v.1.15,2013-09-08 00:11:00,
2013-09-08 02:16:00,77.5,70.1,30.05,South,188,2.0,2.0,78,0.00,,,0.00,Wunderground v.1.15,2013-09-08 00:16:00,
2013-09-08 02:25:00,77.6,70.6,30.05,South,186,0.0,6.0,79,0.00,,,0.00,WeatherDisplay:10.37,2013-09-08 00:25:00,
2013-09-08 02:30:00,77.5,70.5,30.05,SSW,197,2.0,7.0,79,0.00,,,0.00,WeatherDisplay:10.37,2013-09-08 00:30:00,
2013-09-08 02:35:00,77.4,70.4,30.04,South,184,3.0,8.0,79,0.00,,,0.00,WeatherDisplay:10.37,2013-09-08 00:35:00,
2013-09-08 02:40:00,77.4,70.7,30.04,South,178,3.0,7.0,80,0.00,,,0.00,WeatherDisplay:10.37,2013-09-08 00:40:00,
2013-09-08 02:45:00,77.3,70.3,30.04,South,179,0.0,7.0,79,0.00,,,0.00,WeatherDisplay:10.37,2013-09-08 00:45:00,
2013-09-08 02:50:00,77.2,70.2,30.04,South,188,3.0,8.0,79,0.00,,,0.00,WeatherDisplay:10.37,2013-09-08 00:50:00,
2013-09-08 02:55:00,77.2,70.2,30.04,SSW,206,2.0,9.0,79,0.00,,,0.00,WeatherDisplay:10.37,2013-09-08 00:55:00,
2013-09-08 03:00:00,77.2,69.8,30.04,SW,216,3.0,8.0,78,0.00,,,0.00,WeatherDisplay:10.37,2013-09-08 01:00:00,
2013-09-08 03:05:00,77.2,69.4,30.04,SSW,212,1.0,7.0,77,0.00,,,0.00,WeatherDisplay:10.37,2013-09-08 01:05:00,
2013-09-08 03:10:00,77.1,69.3,30.03,South,189,2.0,7.0,77,0.00,,,0.00,WeatherDisplay:10.37,2013-09-08 01:10:00,
2013-09-08 03:15:00,77.2,69.0,30.04,South,186,2.0,7.0,76,0.00,,,0.00,WeatherDisplay:10.37,2013-09-08 01:15:00,
2013-09-08 03:20:00,77.2,69.0,30.04,South,186,3.0,7.0,76,0.00,,,0.00,WeatherDisplay:10.37,2013-09-08 01:20:00,
2013-09-08 03:25:00,77.3,69.5,30.04,South,173,2.0,7.0,77,0.00,,,0.00,WeatherDisplay:10.37,2013-09-08 01:25:00,
2013-09-08 03:30:00,77.3,69.5,30.04,South,186,0.0,6.0,77,0.00,,,0.00,WeatherDisplay:10.37,2013-09-08 01:30:00,
2013-09-08 03:35:00,77.2,69.0,30.04,South,188,1.0,5.0,76,0.00,,,0.00,WeatherDisplay:10.37,2013-09-08 01:35:00,
2013-09-08 03:40:00,77.1,68.9,30.04,South,174,1.0,5.0,76,0.00,,,0.00,WeatherDisplay:10.37,2013-09-08 01:40:00,
2013-09-08 03:45:00,77.1,69.0,30.04,SSE,168,2.0,10.0,76,0.00,,,0.00,WeatherDisplay:10.37,2013-09-08 01:45:00,
2013-09-08 03:50:00,77.2,69.0,30.03,SSE,158,1.0,7.0,76,0.00,,,0.00,WeatherDisplay:10.37,2013-09-08 01:50:00,
2013-09-08 03:55:00,77.3,69.5,30.03,SSE,160,1.0,8.0,77,0.00,,,0.00,WeatherDisplay:10.37,2013-09-08 01:55:00,
2013-09-08 04:00:00,77.2,69.4,30.04,South,177,2.0,8.0,77,0.00,,,0.00,WeatherDisplay:10.37,2013-09-08 02:00:00,
2013-09-08 04:06:00,77.2,69.4,30.04,South,188,3.0,3.0,77,0.00,,,0.00,Wunderground v.1.15,2013-09-08 02:06:00,
2013-09-08 04:11:00,77.2,69.4,30.04,South,184,2.0,3.0,77,0.00,,,0.00,Wunderground v.1.15,2013-09-08 02:11:00,
2013-09-08 04:16:00,77.2,69.4,30.04,South,190,1.0,2.0,77,0.00,,,0.00,Wunderground v.1.15,2013-09-08 02:16:00,
2013-09-08 04:25:00,77.2,69.4,30.03,South,180,0.0,8.0,77,0.00,,,0.00,WeatherDisplay:10.37,2013-09-08 02:25:00,
2013-09-08 04:30:00,77.2,69.4,30.03,South,171,0.0,7.0,77,0.00,,,0.00,WeatherDisplay:10.37,2013-09-08 02:30:00,
2013-09-08 04:40:00,77.0,69.2,30.03,SSE,165,2.0,7.0,77,0.00,,,0.00,WeatherDisplay:10.37,2013-09-08 02:40:00,
2013-09-08 04:45:00,77.3,70.3,30.04,SSE,166,3.0,8.0,79,0.00,,,0.00,WeatherDisplay:10.37,2013-09-08 02:45:00,
2013-09-08 04:50:00,77.2,70.2,30.04,South,171,1.0,7.0,79,0.00,,,0.00,WeatherDisplay:10.37,2013-09-08 02:50:00,
2013-09-08 04:55:00,77.2,70.5,30.05,South,185,5.0,9.0,80,0.00,,,0.00,WeatherDisplay:10.37,2013-09-08 02:55:00,
2013-09-08 05:00:00,77.2,70.9,30.04,South,180,2.0,7.0,81,0.00,,,0.00,WeatherDisplay:10.37,2013-09-08 03:00:00,
2013-09-08 05:05:00,77.2,71.3,30.05,South,178,5.0,10.0,82,0.00,,,0.00,WeatherDisplay:10.37,2013-09-08 03:05:00,
2013-09-08 05:10:00,77.1,71.6,30.04,South,176,2.0,12.0,83,0.00,,,0.00,WeatherDisplay:10.37,2013-09-08 03:10:00,
2013-09-08 05:15:00,76.9,71.3,30.04,South,169,2.0,7.0,83,0.00,,,0.00,WeatherDisplay:10.37,2013-09-08 03:15:00,
2013-09-08 05:20:00,76.8,71.2,30.04,SSE,168,2.0,10.0,83,0.00,,,0.00,WeatherDisplay:10.37,2013-09-08 03:20:00,
2013-09-08 05:25:00,76.8,71.6,30.03,South,178,5.0,12.0,84,0.00,,,0.00,WeatherDisplay:10.37,2013-09-08 03:25:00,
2013-09-08 05:30:00,76.3,70.8,30.02,South,179,5.0,12.0,83,0.00,,,0.00,WeatherDisplay:10.37,2013-09-08 03:30:00,
2013-09-08 05:35:00,76.3,70.7,30.02,South,181,0.0,10.0,83,0.00,,,0.00,WeatherDisplay:10.37,2013-09-08 03:35:00,
2013-09-08 05:40:00,76.5,71.3,30.03,South,184,5.0,15.0,84,0.00,,,0.00,WeatherDisplay:10.37,2013-09-08 03:40:00,
2013-09-08 05:45:00,76.5,71.3,30.04,South,184,7.0,13.0,84,0.00,,,0.00,WeatherDisplay:10.37,2013-09-08 03:45:00,
2013-09-08 05:50:00,76.7,71.5,30.05,South,189,6.0,12.0,84,0.00,,,0.00,WeatherDisplay:10.37,2013-09-08 03:50:00,
2013-09-08 05:55:00,76.8,71.6,30.05,SSW,197,5.0,12.0,84,0.00,,,0.00,WeatherDisplay:10.37,2013-09-08 03:55:00,
2013-09-08 06:00:00,76.7,71.5,30.05,SSW,201,5.0,13.0,84,0.00,RA,,0.01,WeatherDisplay:10.37,2013-09-08 04:00:00,
2013-09-08 06:05:00,76.6,71.8,30.05,SSW,199,10.0,14.0,85,0.00,RA,,0.01,WeatherDisplay:10.37,2013-09-08 04:05:00,
2013-09-08 06:10:00,76.4,71.3,30.04,SSW,213,6.0,13.0,84,0.00,,,0.01,WeatherDisplay:10.37,2013-09-08 04:10:00,
2013-09-08 06:15:00,76.4,70.9,30.04,SW,222,7.0,12.0,83,0.00,,,0.01,WeatherDisplay:10.37,2013-09-08 04:15:00,
2013-09-08 06:25:00,76.1,70.2,30.05,SW,231,9.0,16.0,82,0.00,,,0.01,WeatherDisplay:10.37,2013-09-08 04:25:00,
2013-09-08 06:30:00,76.3,70.4,30.05,SW,227,9.0,15.0,82,0.00,,,0.01,WeatherDisplay:10.37,2013-09-08 04:30:00,
2013-09-08 06:35:00,76.3,70.4,30.05,SW,232,9.0,13.0,82,0.00,,,0.01,WeatherDisplay:10.37,2013-09-08 04:35:00,
2013-09-08 06:40:00,76.3,70.4,30.04,SW,234,6.0,10.0,82,0.00,,,0.01,WeatherDisplay:10.37,2013-09-08 04:40:00,
2013-09-08 06:45:00,76.3,70.4,30.04,SW,229,7.0,12.0,82,0.00,,,0.01,WeatherDisplay:10.37,2013-09-08 04:45:00,
2013-09-08 06:51:00,76.4,70.9,30.04,WSW,237,6.0,9.0,83,0.00,,,0.02,Wunderground v.1.15,2013-09-08 04:51:00,
2013-09-08 07:00:00,76.1,70.6,30.06,SW,230,8.0,14.0,83,0.00,CLR,,0.02,WeatherDisplay:10.37,2013-09-08 05:00:00,
2013-09-08 07:05:00,76.1,70.2,30.06,SW,228,8.0,13.0,82,0.00,CLR,,0.02,WeatherDisplay:10.37,2013-09-08 05:05:00,
2013-09-08 07:10:00,75.7,70.2,30.06,SW,230,9.0,16.0,83,0.00,RA,,0.02,WeatherDisplay:10.37,2013-09-08 05:10:00,
2013-09-08 07:16:00,75.7,70.9,30.06,WSW,249,8.0,8.0,85,0.00,,,0.02,Wunderground v.1.15,2013-09-08 05:16:00,
2013-09-08 07:25:00,75.1,70.3,30.06,SW,233,8.0,13.0,85,0.01,RA,,0.03,WeatherDisplay:10.37,2013-09-08 05:25:00,
2013-09-08 07:30:00,75.3,70.4,30.06,SW,232,8.0,14.0,85,0.00,CLR,,0.03,WeatherDisplay:10.37,2013-09-08 05:30:00,
2013-09-08 07:35:00,75.5,70.6,30.06,SW,233,6.0,12.0,85,0.00,CLR,,0.03,WeatherDisplay:10.37,2013-09-08 05:35:00,
2013-09-08 07:40:00,75.5,70.7,30.06,WSW,239,7.0,12.0,85,0.00,CLR,,0.03,WeatherDisplay:10.37,2013-09-08 05:40:00,
2013-09-08 07:45:00,75.3,70.8,30.06,WSW,240,5.0,12.0,86,0.00,CLR,,0.03,WeatherDisplay:10.37,2013-09-08 05:45:00,
2013-09-08 07:50:00,75.2,70.7,30.07,SW,235,6.0,8.0,86,0.00,CLR,,0.03,WeatherDisplay:10.37,2013-09-08 05:50:00,
2013-09-08 07:55:00,75.1,70.6,30.07,SW,234,5.0,8.0,86,0.00,CLR,,0.03,WeatherDisplay:10.37,2013-09-08 05:55:00,
2013-09-08 08:00:00,75.1,70.6,30.07,WSW,239,2.0,8.0,86,0.00,CLR,,0.03,WeatherDisplay:10.37,2013-09-08 06:00:00,
2013-09-08 08:05:00,74.9,70.4,30.08,WSW,244,0.0,8.0,86,0.00,CLR,,0.03,WeatherDisplay:10.37,2013-09-08 06:05:00,
2013-09-08 08:10:00,74.8,70.3,30.08,WSW,249,1.0,5.0,86,0.00,CLR,,0.03,WeatherDisplay:10.37,2013-09-08 06:10:00,
2013-09-08 08:15:00,74.8,70.3,30.08,WSW,249,0.0,2.0,86,0.00,CLR,,0.03,WeatherDisplay:10.37,2013-09-08 06:15:00,
2013-09-08 08:20:00,74.6,70.1,30.08,WSW,249,0.0,0.0,86,0.00,CLR,,0.03,WeatherDisplay:10.37,2013-09-08 06:20:00,
2013-09-08 08:25:00,74.5,70.0,30.08,WSW,249,0.0,0.0,86,0.00,CLR,,0.03,WeatherDisplay:10.37,2013-09-08 06:25:00,
2013-09-08 08:30:00,74.4,69.9,30.08,WSW,249,0.0,0.0,86,0.00,CLR,,0.03,WeatherDisplay:10.37,2013-09-08 06:30:00,
2013-09-08 08:35:00,74.3,69.5,30.08,WSW,249,0.0,5.0,85,0.00,CLR,,0.03,WeatherDisplay:10.37,2013-09-08 06:35:00,
2013-09-08 08:40:00,74.5,69.7,30.08,WSW,247,0.0,5.0,85,0.00,CLR,,0.03,WeatherDisplay:10.37,2013-09-08 06:40:00,
2013-09-08 08:45:00,74.7,69.5,30.08,SW,220,1.0,5.0,84,0.00,CLR,,0.03,WeatherDisplay:10.37,2013-09-08 06:45:00,
2013-09-08 08:50:00,75.0,69.8,30.08,SSW,213,1.0,5.0,84,0.00,CLR,,0.03,WeatherDisplay:10.37,2013-09-08 06:50:00,
2013-09-08 08:55:00,75.2,69.6,30.08,SW,219,2.0,6.0,83,0.00,CLR,,0.03,WeatherDisplay:10.37,2013-09-08 06:55:00,
2013-09-08 09:00:00,75.3,69.4,30.08,SW,223,3.0,6.0,82,0.00,CLR,,0.03,WeatherDisplay:10.37,2013-09-08 07:00:00,
2013-09-08 09:05:00,75.4,69.5,30.08,SW,228,2.0,7.0,82,0.00,CLR,,0.03,WeatherDisplay:10.37,2013-09-08 07:05:00,
2013-09-08 09:10:00,75.5,69.6,30.08,SW,232,2.0,7.0,82,0.00,CLR,,0.03,WeatherDisplay:10.37,2013-09-08 07:10:00,
2013-09-08 09:15:00,75.6,69.7,30.09,SW,233,5.0,6.0,82,0.00,CLR,,0.03,WeatherDisplay:10.37,2013-09-08 07:15:00,
2013-09-08 09:20:00,75.7,69.5,30.09,WSW,237,2.0,8.0,81,0.00,CLR,,0.03,WeatherDisplay:10.37,2013-09-08 07:20:00,
2013-09-08 09:25:00,75.8,69.6,30.09,WSW,240,3.0,6.0,81,0.00,CLR,,0.03,WeatherDisplay:10.37,2013-09-08 07:25:00,
2013-09-08 09:30:00,75.8,69.6,30.09,WSW,240,3.0,7.0,81,0.00,CLR,,0.03,WeatherDisplay:10.37,2013-09-08 07:30:00,
2013-09-08 09:35:00,75.9,69.6,30.10,SW,233,5.0,7.0,81,0.00,CLR,,0.03,WeatherDisplay:10.37,2013-09-08 07:35:00,
2013-09-08 09:40:00,75.9,69.6,30.09,SW,226,2.0,5.0,81,0.00,CLR,,0.03,WeatherDisplay:10.37,2013-09-08 07:40:00,
2013-09-08 09:45:00,75.9,69.6,30.10,SW,227,3.0,7.0,81,0.00,CLR,,0.03,WeatherDisplay:10.37,2013-09-08 07:45:00,
2013-09-08 09:50:00,75.9,69.6,30.10,SW,233,5.0,7.0,81,0.00,CLR,,0.03,WeatherDisplay:10.37,2013-09-08 07:50:00,
2013-09-08 09:55:00,76.0,69.7,30.10,SW,231,5.0,8.0,81,0.00,CLR,,0.03,WeatherDisplay:10.37,2013-09-08 07:55:00,
2013-09-08 10:00:00,76.1,69.9,30.11,SW,226,6.0,8.0,81,0.00,CLR,,0.03,WeatherDisplay:10.37,2013-09-08 08:00:00,
2013-09-08 10:05:00,76.3,70.4,30.10,SW,222,3.0,7.0,82,0.00,CLR,,0.03,WeatherDisplay:10.37,2013-09-08 08:05:00,
2013-09-08 10:11:00,76.3,70.4,30.11,SW,219,4.0,6.0,82,0.00,,,0.03,Wunderground v.1.15,2013-09-08 08:11:00,
2013-09-08 10:20:00,76.4,70.5,30.10,SW,227,1.0,6.0,82,0.00,CLR,,0.03,WeatherDisplay:10.37,2013-09-08 08:20:00,
2013-09-08 10:25:00,76.5,70.6,30.11,SSW,210,2.0,6.0,82,0.00,CLR,,0.03,WeatherDisplay:10.37,2013-09-08 08:25:00,
2013-09-08 10:30:00,76.6,70.7,30.11,SSW,211,5.0,8.0,82,0.00,CLR,,0.03,WeatherDisplay:10.37,2013-09-08 08:30:00,
2013-09-08 10:35:00,76.7,70.8,30.12,SSW,204,5.0,8.0,82,0.00,CLR,,0.03,WeatherDisplay:10.37,2013-09-08 08:35:00,
2013-09-08 10:40:00,76.8,70.9,30.12,SSW,196,1.0,8.0,82,0.00,CLR,,0.03,WeatherDisplay:10.37,2013-09-08 08:40:00,
2013-09-08 10:45:00,76.9,71.0,30.11,South,191,3.0,7.0,82,0.00,CLR,,0.03,WeatherDisplay:10.37,2013-09-08 08:45:00,
2013-09-08 10:50:00,77.0,71.1,30.11,SSW,197,3.0,8.0,82,0.00,CLR,,0.03,WeatherDisplay:10.37,2013-09-08 08:50:00,
2013-09-08 10:55:00,77.1,70.8,30.11,SSW,205,5.0,8.0,81,0.00,CLR,,0.03,WeatherDisplay:10.37,2013-09-08 08:55:00,
2013-09-08 11:00:00,77.2,70.5,30.11,SSW,210,2.0,6.0,80,0.00,CLR,,0.03,WeatherDisplay:10.37,2013-09-08 09:00:00,
2013-09-08 11:05:00,77.4,70.7,30.10,SSW,203,1.0,6.0,80,0.00,CLR,,0.03,WeatherDisplay:10.37,2013-09-08 09:05:00,
2013-09-08 11:10:00,77.4,70.4,30.11,SSW,203,2.0,7.0,79,0.00,CLR,,0.03,WeatherDisplay:10.37,2013-09-08 09:10:00,
2013-09-08 11:15:00,77.4,70.4,30.11,SSW,205,3.0,6.0,79,0.00,CLR,,0.03,WeatherDisplay:10.37,2013-09-08 09:15:00,
2013-09-08 11:20:00,77.3,70.3,30.11,SW,214,2.0,9.0,79,0.00,CLR,,0.03,WeatherDisplay:10.37,2013-09-08 09:20:00,
2013-09-08 11:25:00,77.3,70.3,30.11,SW,214,2.0,6.0,79,0.00,CLR,,0.03,WeatherDisplay:10.37,2013-09-08 09:25:00,
2013-09-08 11:30:00,77.2,69.8,30.11,SSW,207,6.0,9.0,78,0.00,CLR,,0.03,WeatherDisplay:10.37,2013-09-08 09:30:00,
2013-09-08 11:35:00,77.3,69.9,30.11,SSW,202,2.0,8.0,78,0.00,CLR,,0.03,WeatherDisplay:10.37,2013-09-08 09:35:00,
2013-09-08 11:41:00,77.3,69.9,30.11,South,190,2.0,7.0,78,0.00,CLR,,0.03,WeatherDisplay:10.37,2013-09-08 09:41:00,
2013-09-08 11:50:00,77.6,70.6,30.11,South,176,2.0,6.0,79,0.00,CLR,,0.03,WeatherDisplay:10.37,2013-09-08 09:50:00,
2013-09-08 11:56:00,77.6,70.6,30.10,SE,143,2.0,3.0,79,0.00,,,0.03,Wunderground v.1.15,2013-09-08 09:56:00,
2013-09-08 12:05:00,77.8,70.4,30.10,SE,146,1.0,5.0,78,0.00,CLR,,0.03,WeatherDisplay:10.37,2013-09-08 10:05:00,
2013-09-08 12:10:00,77.7,69.5,30.10,SSE,149,0.0,0.0,76,0.00,CLR,,0.03,WeatherDisplay:10.37,2013-09-08 10:10:00,
2013-09-08 12:15:00,77.9,69.3,30.10,SSE,151,2.0,5.0,75,0.00,CLR,,0.03,WeatherDisplay:10.37,2013-09-08 10:15:00,
2013-09-08 12:20:00,78.1,69.9,30.10,SSE,158,3.0,5.0,76,0.00,CLR,,0.03,WeatherDisplay:10.37,2013-09-08 10:20:00,
2013-09-08 12:25:00,78.0,69.4,30.10,South,181,2.0,6.0,75,0.00,CLR,,0.03,WeatherDisplay:10.37,2013-09-08 10:25:00,
2013-09-08 12:30:00,77.9,69.7,30.10,SSW,198,2.0,6.0,76,0.00,CLR,,0.03,WeatherDisplay:10.37,2013-09-08 10:30:00,
2013-09-08 12:35:00,78.1,70.3,30.10,SSW,198,1.0,5.0,77,0.00,CLR,,0.03,WeatherDisplay:10.37,2013-09-08 10:35:00,
2013-09-08 12:40:00,78.3,70.5,30.10,South,190,1.0,4.0,77,0.00,CLR,,0.03,WeatherDisplay:10.37,2013-09-08 10:40:00,
2013-09-08 12:45:00,78.4,70.2,30.10,South,186,2.0,5.0,76,0.00,CLR,,0.03,WeatherDisplay:10.37,2013-09-08 10:45:00,
2013-09-08 12:50:00,78.5,70.3,30.10,South,179,2.0,7.0,76,0.00,CLR,,0.03,WeatherDisplay:10.37,2013-09-08 10:50:00,
2013-09-08 12:55:00,78.9,70.7,30.10,SSE,168,3.0,7.0,76,0.00,CLR,,0.03,WeatherDisplay:10.37,2013-09-08 10:55:00,
2013-09-08 13:00:00,79.2,70.6,30.10,SSE,167,2.0,7.0,75,0.00,CLR,,0.03,WeatherDisplay:10.37,2013-09-08 11:00:00,
2013-09-08 13:05:00,79.5,70.9,30.10,South,177,0.0,5.0,75,0.00,CLR,,0.03,WeatherDisplay:10.37,2013-09-08 11:05:00,
2013-09-08 13:10:00,79.7,70.3,30.10,South,185,2.0,5.0,73,0.00,CLR,,0.03,WeatherDisplay:10.37,2013-09-08 11:10:00,
2013-09-08 13:15:00,79.6,69.8,30.10,South,178,3.0,6.0,72,0.00,CLR,,0.03,WeatherDisplay:10.37,2013-09-08 11:15:00,
2013-09-08 13:20:00,79.3,69.5,30.10,South,176,1.0,6.0,72,0.00,CLR,,0.03,WeatherDisplay:10.37,2013-09-08 11:20:00,
2013-09-08 13:25:00,79.1,69.3,30.09,South,183,3.0,6.0,72,0.00,CLR,,0.03,WeatherDisplay:10.37,2013-09-08 11:25:00,
2013-09-08 13:30:00,79.1,69.3,30.09,SSW,193,2.0,8.0,72,0.00,CLR,,0.03,WeatherDisplay:10.37,2013-09-08 11:30:00,
2013-09-08 13:35:00,79.5,69.6,30.09,SSW,196,0.0,5.0,72,0.00,CLR,,0.03,WeatherDisplay:10.37,2013-09-08 11:35:00,
2013-09-08 13:40:00,79.8,69.5,30.09,SSW,193,2.0,7.0,71,0.00,CLR,,0.03,WeatherDisplay:10.37,2013-09-08 11:40:00,
2013-09-08 13:46:00,80.0,70.2,30.09,South,186,3.0,6.0,72,0.00,,,0.03,Wunderground v.1.15,2013-09-08 11:46:00,
2013-09-08 13:55:00,80.0,69.7,30.09,South,179,2.0,6.0,71,0.00,CLR,,0.03,WeatherDisplay:10.37,2013-09-08 11:55:00,
2013-09-08 14:00:00,80.0,69.7,30.09,South,177,2.0,6.0,71,0.00,CLR,,0.03,WeatherDisplay:10.37,2013-09-08 12:00:00,
2013-09-08 14:05:00,80.0,69.8,30.08,South,176,0.0,4.0,71,0.00,CLR,,0.03,WeatherDisplay:10.37,2013-09-08 12:05:00,
2013-09-08 14:10:00,80.2,70.4,30.08,South,178,1.0,5.0,72,0.00,CLR,,0.03,WeatherDisplay:10.37,2013-09-08 12:10:00,
2013-09-08 14:16:00,80.0,69.7,30.09,SSE,158,2.0,4.0,71,0.00,,,0.03,Wunderground v.1.15,2013-09-08 12:16:00,
2013-09-08 14:25:00,80.2,69.9,30.09,SSE,158,6.0,10.0,71,0.00,CLR,,0.03,WeatherDisplay:10.37,2013-09-08 12:25:00,
2013-09-08 14:30:00,80.1,70.7,30.09,SSE,155,6.0,10.0,73,0.00,CLR,,0.03,WeatherDisplay:10.37,2013-09-08 12:30:00,
2013-09-08 14:36:00,80.2,70.8,30.09,SSE,154,4.0,4.0,73,0.00,,,0.03,Wunderground v.1.15,2013-09-08 12:36:00,
2013-09-08 14:41:00,80.0,70.2,30.09,SSE,163,4.0,4.0,72,0.00,,,0.03,Wunderground v.1.15,2013-09-08 12:41:00,
2013-09-08 14:50:00,79.8,69.9,30.09,SSE,154,6.0,16.0,72,0.00,CLR,,0.03,WeatherDisplay:10.37,2013-09-08 12:50:00,
2013-09-08 14:55:00,79.4,69.6,30.09,SSE,156,6.0,12.0,72,0.00,CLR,,0.03,WeatherDisplay:10.37,2013-09-08 12:55:00,
2013-09-08 15:00:00,79.3,69.9,30.09,SSE,156,7.0,12.0,73,0.00,CLR,,0.03,WeatherDisplay:10.37,2013-09-08 13:00:00,
2013-09-08 15:05:00,79.2,69.8,30.09,SSE,156,6.0,12.0,73,0.00,CLR,,0.03,WeatherDisplay:10.37,2013-09-08 13:05:00,
2013-09-08 15:10:00,79.0,69.6,30.09,SSE,161,5.0,12.0,73,0.00,CLR,,0.03,WeatherDisplay:10.37,2013-09-08 13:10:00,
2013-09-08 15:15:00,78.9,69.9,30.09,SSE,167,2.0,10.0,74,0.00,CLR,,0.03,WeatherDisplay:10.37,2013-09-08 13:15:00,
2013-09-08 15:20:00,78.7,69.3,30.09,SSE,167,6.0,12.0,73,0.00,CLR,,0.03,WeatherDisplay:10.37,2013-09-08 13:20:00,
2013-09-08 15:25:00,78.7,70.1,30.09,SSE,161,3.0,12.0,75,0.00,CLR,,0.03,WeatherDisplay:10.37,2013-09-08 13:25:00,
2013-09-08 15:30:00,78.7,70.1,30.09,SSE,151,6.0,12.0,75,0.00,CLR,,0.03,WeatherDisplay:10.37,2013-09-08 13:30:00,
2013-09-08 15:36:00,78.6,70.0,30.09,SE,142,5.0,5.0,75,0.00,,,0.03,Wunderground v.1.15,2013-09-08 13:36:00,
2013-09-08 15:41:00,78.5,69.9,30.09,SSE,161,4.0,5.0,75,0.00,,,0.03,Wunderground v.1.15,2013-09-08 13:41:00,
2013-09-08 15:46:00,78.4,69.8,30.08,SSE,150,4.0,7.0,75,0.00,,,0.03,Wunderground v.1.15,2013-09-08 13:46:00,
2013-09-08 15:55:00,78.6,70.0,30.09,SSE,163,5.0,12.0,75,0.00,CLR,,0.03,WeatherDisplay:10.37,2013-09-08 13:55:00,
2013-09-08 16:00:00,78.5,69.9,30.09,SSE,167,5.0,12.0,75,0.00,CLR,,0.03,WeatherDisplay:10.37,2013-09-08 14:00:00,
2013-09-08 16:05:00,78.6,70.0,30.09,SSE,168,3.0,9.0,75,0.00,CLR,,0.03,WeatherDisplay:10.37,2013-09-08 14:05:00,
2013-09-08 16:10:00,78.6,70.0,30.09,SSE,162,2.0,10.0,75,0.00,CLR,,0.03,WeatherDisplay:10.37,2013-09-08 14:10:00,
2013-09-08 16:15:00,78.6,70.0,30.09,SSE,156,3.0,8.0,75,0.00,CLR,,0.03,WeatherDisplay:10.37,2013-09-08 14:15:00,
2013-09-08 16:20:00,78.5,69.9,30.09,SSE,156,2.0,11.0,75,0.00,CLR,,0.03,WeatherDisplay:10.37,2013-09-08 14:20:00,
2013-09-08 16:25:00,78.5,69.9,30.09,South,170,6.0,12.0,75,0.00,CLR,,0.03,WeatherDisplay:10.37,2013-09-08 14:25:00,
2013-09-08 16:30:00,78.4,69.8,30.10,SSE,168,6.0,10.0,75,0.00,CLR,,0.03,WeatherDisplay:10.37,2013-09-08 14:30:00,
2013-09-08 16:35:00,78.3,70.1,30.10,South,170,2.0,8.0,76,0.00,CLR,,0.03,WeatherDisplay:10.37,2013-09-08 14:35:00,
2013-09-08 16:40:00,78.4,70.2,30.09,South,179,1.0,7.0,76,0.00,CLR,,0.03,WeatherDisplay:10.37,2013-09-08 14:40:00,
2013-09-08 16:45:00,78.4,70.2,30.10,South,175,3.0,8.0,76,0.00,CLR,,0.03,WeatherDisplay:10.37,2013-09-08 14:45:00,
2013-09-08 16:50:00,78.4,70.6,30.09,South,172,3.0,9.0,77,0.00,CLR,,0.03,WeatherDisplay:10.37,2013-09-08 14:50:00,
2013-09-08 16:55:00,78.7,70.8,30.09,South,172,1.0,9.0,77,0.00,CLR,,0.03,WeatherDisplay:10.37,2013-09-08 14:55:00,
2013-09-08 17:00:00,79.0,70.7,30.09,SSE,165,2.0,7.0,76,0.00,CLR,,0.03,WeatherDisplay:10.37,2013-09-08 15:00:00,
2013-09-08 17:05:00,79.0,70.8,30.09,SSE,164,1.0,6.0,76,0.00,CLR,,0.03,WeatherDisplay:10.37,2013-09-08 15:05:00,
2013-09-08 17:10:00,78.9,70.3,30.09,SSE,163,3.0,8.0,75,0.00,CLR,,0.03,WeatherDisplay:10.37,2013-09-08 15:10:00,
2013-09-08 17:15:00,78.8,70.2,30.09,SSE,167,2.0,7.0,75,0.00,CLR,,0.03,WeatherDisplay:10.37,2013-09-08 15:15:00,
2013-09-08 17:20:00,78.6,70.4,30.09,SSE,165,3.0,7.0,76,0.00,CLR,,0.03,WeatherDisplay:10.37,2013-09-08 15:20:00,
2013-09-08 17:25:00,78.8,70.6,30.09,SSE,164,2.0,6.0,76,0.00,CLR,,0.03,WeatherDisplay:10.37,2013-09-08 15:25:00,
2013-09-08 17:30:00,78.9,70.7,30.09,SSE,163,0.0,6.0,76,0.00,CLR,,0.03,WeatherDisplay:10.37,2013-09-08 15:30:00,
2013-09-08 17:35:00,78.7,70.5,30.09,SSE,163,3.0,8.0,76,0.00,CLR,,0.03,WeatherDisplay:10.37,2013-09-08 15:35:00,
2013-09-08 17:41:00,78.6,70.4,30.09,SSE,165,3.0,7.0,76,0.00,CLR,,0.03,WeatherDisplay:10.37,2013-09-08 15:41:00,
2013-09-08 17:46:00,78.5,70.7,30.09,SSE,168,1.0,7.0,77,0.00,CLR,,0.03,WeatherDisplay:10.37,2013-09-08 15:46:00,
2013-09-08 17:55:00,78.6,70.8,30.10,SSE,155,1.0,8.0,77,0.00,CLR,,0.03,WeatherDisplay:10.37,2013-09-08 15:55:00,
2013-09-08 18:01:00,78.4,70.6,30.10,SSE,156,2.0,2.0,77,0.00,,,0.03,Wunderground v.1.15,2013-09-08 16:01:00,
2013-09-08 18:06:00,78.3,70.5,30.10,South,173,2.0,6.0,77,0.00,,,0.03,Wunderground v.1.15,2013-09-08 16:06:00,
2013-09-08 18:11:00,78.3,70.5,30.10,South,176,1.0,2.0,77,0.00,,,0.03,Wunderground v.1.15,2013-09-08 16:11:00,
2013-09-08 18:20:00,78.1,70.3,30.10,SSE,163,1.0,6.0,77,0.00,CLR,,0.03,WeatherDisplay:10.37,2013-09-08 16:20:00,
2013-09-08 18:25:00,78.0,70.6,30.11,South,169,3.0,10.0,78,0.00,CLR,,0.03,WeatherDisplay:10.37,2013-09-08 16:25:00,
2013-09-08 18:30:00,77.8,70.4,30.10,South,172,0.0,7.0,78,0.00,CLR,,0.03,WeatherDisplay:10.37,2013-09-08 16:30:00,
2013-09-08 18:35:00,77.8,70.4,30.10,South,171,0.0,5.0,78,0.00,CLR,,0.03,WeatherDisplay:10.37,2013-09-08 16:35:00,
2013-09-08 18:40:00,77.8,70.4,30.10,SSE,160,1.0,5.0,78,0.00,CLR,,0.03,WeatherDisplay:10.37,2013-09-08 16:40:00,
2013-09-08 18:45:00,77.8,70.4,30.10,SSE,159,0.0,4.0,78,0.00,CLR,,0.03,WeatherDisplay:10.37,2013-09-08 16:45:00,
2013-09-08 18:50:00,77.7,70.3,30.10,SSE,159,0.0,6.0,78,0.00,CLR,,0.03,WeatherDisplay:10.37,2013-09-08 16:50:00,
2013-09-08 19:00:00,77.5,70.5,30.10,South,169,0.0,6.0,79,0.00,CLR,,0.03,WeatherDisplay:10.37,2013-09-08 17:00:00,
2013-09-08 19:05:00,77.5,70.5,30.10,South,171,0.0,0.0,79,0.00,CLR,,0.03,WeatherDisplay:10.37,2013-09-08 17:05:00,
2013-09-08 19:10:00,77.4,70.4,30.11,South,171,0.0,0.0,79,0.00,CLR,,0.03,WeatherDisplay:10.37,2013-09-08 17:10:00,
2013-09-08 19:15:00,77.4,70.4,30.11,South,171,0.0,0.0,79,0.00,,,0.03,Wunderground v.1.15,2013-09-08 17:15:00,
2013-09-08 19:20:00,77.4,70.4,30.11,South,171,0.0,1.0,79,0.00,,,0.03,Wunderground v.1.15,2013-09-08 17:20:00,
2013-09-08 19:30:00,77.3,70.6,30.10,South,171,0.0,0.0,80,0.00,CLR,,0.03,WeatherDisplay:10.37,2013-09-08 17:30:00,
2013-09-08 19:35:00,77.2,70.5,30.10,South,171,0.0,0.0,80,0.00,CLR,,0.03,WeatherDisplay:10.37,2013-09-08 17:35:00,
2013-09-08 19:40:00,76.9,70.3,30.10,South,171,0.0,0.0,80,0.00,CLR,,0.03,WeatherDisplay:10.37,2013-09-08 17:40:00,
2013-09-08 19:45:00,76.8,70.6,30.10,South,171,0.0,0.0,81,0.00,CLR,,0.03,WeatherDisplay:10.37,2013-09-08 17:45:00,
2013-09-08 19:50:00,76.8,70.5,30.11,South,171,0.0,0.0,81,0.00,CLR,,0.03,WeatherDisplay:10.37,2013-09-08 17:50:00,
2013-09-08 19:55:00,76.7,70.4,30.11,South,171,0.0,0.0,81,0.00,CLR,,0.03,WeatherDisplay:10.37,2013-09-08 17:55:00,
2013-09-08 20:00:00,76.7,70.4,30.10,South,171,0.0,0.0,81,0.00,CLR,,0.03,WeatherDisplay:10.37,2013-09-08 18:00:00,
2013-09-08 20:05:00,76.7,70.8,30.11,South,171,0.0,0.0,82,0.00,CLR,,0.03,WeatherDisplay:10.37,2013-09-08 18:05:00,
2013-09-08 20:10:00,76.7,70.8,30.11,South,171,0.0,0.0,82,0.00,CLR,,0.03,WeatherDisplay:10.37,2013-09-08 18:10:00,
2013-09-08 20:16:00,76.6,70.7,30.11,South,171,0.0,0.0,82,0.00,,,0.03,Wunderground v.1.15,2013-09-08 18:16:00,
2013-09-08 20:25:00,76.6,70.7,30.11,South,171,0.0,0.0,82,0.00,CLR,,0.03,WeatherDisplay:10.37,2013-09-08 18:25:00,
2013-09-08 20:30:00,76.6,70.7,30.11,South,171,0.0,0.0,82,0.00,CLR,,0.03,WeatherDisplay:10.37,2013-09-08 18:30:00,
2013-09-08 20:35:00,76.6,70.7,30.12,South,171,0.0,0.0,82,0.00,CLR,,0.03,WeatherDisplay:10.37,2013-09-08 18:35:00,
2013-09-08 20:40:00,76.6,70.7,30.12,South,171,0.0,0.0,82,0.00,,,0.03,WeatherDisplay:10.37,2013-09-08 18:40:00,
2013-09-08 20:45:00,76.7,70.8,30.12,South,171,0.0,0.0,82,0.00,,,0.03,WeatherDisplay:10.37,2013-09-08 18:45:00,
2013-09-08 20:50:00,76.7,70.8,30.12,South,171,0.0,0.0,82,0.00,,,0.03,WeatherDisplay:10.37,2013-09-08 18:50:00,
2013-09-08 20:55:00,76.7,70.8,30.12,South,171,0.0,0.0,82,0.00,,,0.03,Wunderground v.1.15,2013-09-08 18:55:00,
2013-09-08 21:05:00,76.6,70.7,30.13,South,171,0.0,0.0,82,0.00,,,0.03,WeatherDisplay:10.37,2013-09-08 19:05:00,
2013-09-08 21:10:00,76.6,71.0,30.14,South,171,0.0,0.0,83,0.00,,,0.03,WeatherDisplay:10.37,2013-09-08 19:10:00,
2013-09-08 21:15:00,76.6,71.0,30.14,South,171,0.0,0.0,83,0.00,,,0.03,WeatherDisplay:10.37,2013-09-08 19:15:00,
2013-09-08 21:20:00,76.6,71.0,30.14,South,171,0.0,0.0,83,0.00,,,0.03,WeatherDisplay:10.37,2013-09-08 19:20:00,
2013-09-08 21:25:00,76.6,71.0,30.14,South,171,0.0,0.0,83,0.00,,,0.03,WeatherDisplay:10.37,2013-09-08 19:25:00,
2013-09-08 21:30:00,76.5,71.0,30.14,South,171,0.0,0.0,83,0.00,,,0.03,WeatherDisplay:10.37,2013-09-08 19:30:00,
2013-09-08 21:35:00,76.4,70.9,30.14,South,171,0.0,0.0,83,0.00,,,0.03,WeatherDisplay:10.37,2013-09-08 19:35:00,
2013-09-08 21:40:00,76.3,71.1,30.14,South,171,0.0,0.0,84,0.00,,,0.03,WeatherDisplay:10.37,2013-09-08 19:40:00,
2013-09-08 21:45:00,76.2,71.0,30.15,South,171,0.0,0.0,84,0.00,,,0.03,WeatherDisplay:10.37,2013-09-08 19:45:00,
2013-09-08 21:50:00,76.2,71.0,30.15,South,171,0.0,0.0,84,0.00,,,0.03,WeatherDisplay:10.37,2013-09-08 19:50:00,
2013-09-08 21:55:00,76.2,71.0,30.15,South,171,0.0,0.0,84,0.00,,,0.03,WeatherDisplay:10.37,2013-09-08 19:55:00,
2013-09-08 22:05:00,76.2,71.1,30.15,South,171,0.0,0.0,84,0.00,CLR,,0.03,WeatherDisplay:10.37,2013-09-08 20:05:00,
2013-09-08 22:10:00,76.3,71.1,30.15,South,171,0.0,0.0,84,0.00,,,0.03,Wunderground v.1.15,2013-09-08 20:10:00,
2013-09-08 22:15:00,76.3,71.1,30.15,South,171,0.0,0.0,84,0.00,,,0.03,Wunderground v.1.15,2013-09-08 20:15:00,
2013-09-08 22:25:00,76.3,71.5,30.15,South,171,0.0,1.0,85,0.00,CLR,,0.03,WeatherDisplay:10.37,2013-09-08 20:25:00,
2013-09-08 22:30:00,76.3,71.1,30.15,South,171,0.0,2.0,84,0.00,CLR,,0.03,WeatherDisplay:10.37,2013-09-08 20:30:00,
2013-09-08 22:35:00,76.3,71.1,30.15,South,169,1.0,5.0,84,0.00,CLR,,0.03,WeatherDisplay:10.37,2013-09-08 20:35:00,
2013-09-08 22:40:00,76.2,71.0,30.15,SSE,153,0.0,2.0,84,0.00,CLR,,0.03,WeatherDisplay:10.37,2013-09-08 20:40:00,
2013-09-08 22:45:00,76.2,70.7,30.15,SSE,152,1.0,6.0,83,0.00,CLR,,0.03,WeatherDisplay:10.37,2013-09-08 20:45:00,
2013-09-08 22:50:00,76.1,70.6,30.15,SSE,160,1.0,5.0,83,0.00,CLR,,0.03,WeatherDisplay:10.37,2013-09-08 20:50:00,
2013-09-08 22:55:00,76.1,70.2,30.15,SSE,167,2.0,6.0,82,0.00,CLR,,0.03,WeatherDisplay:10.37,2013-09-08 20:55:00,
2013-09-08 23:00:00,76.0,69.8,30.15,South,175,1.0,5.0,81,0.00,CLR,,0.03,WeatherDisplay:10.37,2013-09-08 21:00:00,
2013-09-08 23:05:00,76.1,69.8,30.16,South,176,1.0,7.0,81,0.00,CLR,,0.03,WeatherDisplay:10.37,2013-09-08 21:05:00,
2013-09-08 23:10:00,76.2,69.6,30.15,South,170,0.0,5.0,80,0.00,CLR,,0.03,WeatherDisplay:10.37,2013-09-08 21:10:00,
2013-09-08 23:15:00,76.3,69.7,30.15,SSE,166,0.0,5.0,80,0.00,CLR,,0.03,WeatherDisplay:10.37,2013-09-08 21:15:00,
2013-09-08 23:20:00,76.5,70.2,30.16,South,170,0.0,5.0,81,0.00,CLR,,0.03,WeatherDisplay:10.37,2013-09-08 21:20:00,
2013-09-08 23:25:00,76.6,70.3,30.16,SSW,192,2.0,6.0,81,0.00,CLR,,0.03,WeatherDisplay:10.37,2013-09-08 21:25:00,
2013-09-08 23:30:00,76.5,70.2,30.16,SSW,196,2.0,8.0,81,0.00,CLR,,0.03,WeatherDisplay:10.37,2013-09-08 21:30:00,
2013-09-08 23:35:00,76.5,69.9,30.17,SSW,198,5.0,8.0,80,0.00,CLR,,0.03,WeatherDisplay:10.37,2013-09-08 21:35:00,
2013-09-08 23:40:00,76.6,70.3,30.17,SSW,193,3.0,9.0,81,0.00,CLR,,0.03,WeatherDisplay:10.37,2013-09-08 21:40:00,
2013-09-08 23:45:00,76.5,70.2,30.17,South,184,2.0,7.0,81,0.00,CLR,,0.03,WeatherDisplay:10.37,2013-09-08 21:45:00,
2013-09-08 23:50:00,76.5,70.2,30.17,South,187,1.0,6.0,81,0.00,CLR,,0.03,WeatherDisplay:10.37,2013-09-08 21:50:00,
2013-09-08 23:55:00,76.4,70.2,30.17,South,188,1.0,7.0,81,0.00,CLR,,0.03,WeatherDisplay:10.37,2013-09-08 21:55:00,